sensor_id;sensor_type;location;lat;lon;timestamp;P1;durP1;ratioP1;P2;durP2;ratioP2
33738;SDS011;20063;51.730;11.110;2023-09-19T00:00:57;7.07;;;1.70;;
33738;SDS011;20063;51.730;11.110;2023-09-19T00:03:23;3.53;;;1.83;;
33738;SDS011;20063;51.730;11.110;2023-09-19T00:05:49;7.43;;;2.17;;
33738;SDS011;20063;51.730;11.110;2023-09-19T00:08:15;7.05;;;1.80;;
33738;SDS011;20063;51.730;11.110;2023-09-19T00:10:41;9.85;;;2.78;;
33738;SDS011;20063;51.730;11.110;2023-09-19T00:13:08;4.32;;;1.83;;
33738;SDS011;20063;51.730;11.110;2023-09-19T00:15:38;9.90;;;2.05;;
33738;SDS011;20063;51.730;11.110;2023-09-19T00:18:05;11.63;;;2.20;;
33738;SDS011;20063;51.730;11.110;2023-09-19T00:20:32;4.38;;;1.98;;
33738;SDS011;20063;51.730;11.110;2023-09-19T00:23:04;11.32;;;2.10;;
33738;SDS011;20063;51.730;11.110;2023-09-19T00:25:34;5.05;;;1.75;;
33738;SDS011;20063;51.730;11.110;2023-09-19T00:28:03;5.25;;;1.60;;
33738;SDS011;20063;51.730;11.110;2023-09-19T00:30:30;4.22;;;1.25;;
33738;SDS011;20063;51.730;11.110;2023-09-19T00:32:56;6.43;;;1.85;;
33738;SDS011;20063;51.730;11.110;2023-09-19T00:35:22;5.20;;;2.15;;
33738;SDS011;20063;51.730;11.110;2023-09-19T00:37:50;7.22;;;1.85;;
33738;SDS011;20063;51.730;11.110;2023-09-19T00:40:16;5.30;;;1.50;;
33738;SDS011;20063;51.730;11.110;2023-09-19T00:42:42;1.50;;;1.20;;
33738;SDS011;20063;51.730;11.110;2023-09-19T00:45:09;3.35;;;1.48;;
33738;SDS011;20063;51.730;11.110;2023-09-19T00:47:37;3.72;;;1.58;;
33738;SDS011;20063;51.730;11.110;2023-09-19T00:50:04;6.60;;;1.45;;
33738;SDS011;20063;51.730;11.110;2023-09-19T00:52:33;2.67;;;1.52;;
33738;SDS011;20063;51.730;11.110;2023-09-19T00:55:03;4.30;;;1.40;;
33738;SDS011;20063;51.730;11.110;2023-09-19T00:57:30;3.53;;;1.45;;
33738;SDS011;20063;51.730;11.110;2023-09-19T00:59:57;7.10;;;1.52;;
33738;SDS011;20063;51.730;11.110;2023-09-19T01:02:24;5.10;;;1.42;;
33738;SDS011;20063;51.730;11.110;2023-09-19T01:04:53;6.00;;;1.10;;
33738;SDS011;20063;51.730;11.110;2023-09-19T01:07:20;8.40;;;1.63;;
33738;SDS011;20063;51.730;11.110;2023-09-19T01:09:47;4.47;;;1.35;;
33738;SDS011;20063;51.730;11.110;2023-09-19T01:12:22;2.72;;;1.35;;
33738;SDS011;20063;51.730;11.110;2023-09-19T01:17:46;3.92;;;1.25;;
33738;SDS011;20063;51.730;11.110;2023-09-19T01:23:23;1.58;;;1.17;;
33738;SDS011;20063;51.730;11.110;2023-09-19T01:29:34;2.42;;;1.67;;
33738;SDS011;20063;51.730;11.110;2023-09-19T01:32:11;3.08;;;1.55;;
33738;SDS011;20063;51.730;11.110;2023-09-19T01:37:19;3.10;;;1.50;;
33738;SDS011;20063;51.730;11.110;2023-09-19T01:39:50;3.00;;;1.45;;
33738;SDS011;20063;51.730;11.110;2023-09-19T01:42:37;6.85;;;1.83;;
33738;SDS011;20063;51.730;11.110;2023-09-19T01:45:13;4.60;;;1.35;;
33738;SDS011;20063;51.730;11.110;2023-09-19T01:47:48;6.20;;;2.63;;
33738;SDS011;20063;51.730;11.110;2023-09-19T01:53:07;2.25;;;1.45;;
33738;SDS011;20063;51.730;11.110;2023-09-19T01:55:45;2.80;;;1.65;;
33738;SDS011;20063;51.730;11.110;2023-09-19T02:01:04;3.42;;;1.60;;
33738;SDS011;20063;51.730;11.110;2023-09-19T02:03:33;3.40;;;1.45;;
33738;SDS011;20063;51.730;11.110;2023-09-19T02:06:00;5.25;;;1.50;;
33738;SDS011;20063;51.730;11.110;2023-09-19T02:08:28;5.70;;;1.92;;
33738;SDS011;20063;51.730;11.110;2023-09-19T02:10:56;5.93;;;1.88;;
33738;SDS011;20063;51.730;11.110;2023-09-19T02:13:22;3.55;;;1.52;;
33738;SDS011;20063;51.730;11.110;2023-09-19T02:15:50;11.95;;;2.25;;
33738;SDS011;20063;51.730;11.110;2023-09-19T02:18:16;7.07;;;1.90;;
33738;SDS011;20063;51.730;11.110;2023-09-19T02:20:53;4.78;;;2.00;;
33738;SDS011;20063;51.730;11.110;2023-09-19T02:23:21;5.35;;;1.80;;
33738;SDS011;20063;51.730;11.110;2023-09-19T02:25:53;5.25;;;1.58;;
33738;SDS011;20063;51.730;11.110;2023-09-19T02:28:20;10.88;;;1.88;;
33738;SDS011;20063;51.730;11.110;2023-09-19T02:30:47;6.68;;;2.08;;
33738;SDS011;20063;51.730;11.110;2023-09-19T02:33:16;5.72;;;2.08;;
33738;SDS011;20063;51.730;11.110;2023-09-19T02:35:44;4.80;;;1.70;;
33738;SDS011;20063;51.730;11.110;2023-09-19T02:38:11;2.30;;;1.67;;
33738;SDS011;20063;51.730;11.110;2023-09-19T02:40:37;3.17;;;1.88;;
33738;SDS011;20063;51.730;11.110;2023-09-19T02:43:03;3.10;;;1.80;;
33738;SDS011;20063;51.730;11.110;2023-09-19T02:45:30;5.10;;;1.67;;
33738;SDS011;20063;51.730;11.110;2023-09-19T02:47:56;7.97;;;1.90;;
33738;SDS011;20063;51.730;11.110;2023-09-19T02:50:22;7.07;;;2.13;;
33738;SDS011;20063;51.730;11.110;2023-09-19T02:52:48;5.28;;;1.73;;
33738;SDS011;20063;51.730;11.110;2023-09-19T02:55:17;7.43;;;1.60;;
33738;SDS011;20063;51.730;11.110;2023-09-19T02:57:51;4.57;;;1.70;;
33738;SDS011;20063;51.730;11.110;2023-09-19T03:00:19;7.60;;;2.08;;
33738;SDS011;20063;51.730;11.110;2023-09-19T03:02:47;5.10;;;1.73;;
33738;SDS011;20063;51.730;11.110;2023-09-19T03:05:16;2.65;;;1.67;;
33738;SDS011;20063;51.730;11.110;2023-09-19T03:07:42;14.07;;;2.00;;
33738;SDS011;20063;51.730;11.110;2023-09-19T03:10:10;4.20;;;1.92;;
33738;SDS011;20063;51.730;11.110;2023-09-19T03:12:36;4.45;;;1.83;;
33738;SDS011;20063;51.730;11.110;2023-09-19T03:15:04;4.60;;;1.92;;
33738;SDS011;20063;51.730;11.110;2023-09-19T03:17:30;3.92;;;1.55;;
33738;SDS011;20063;51.730;11.110;2023-09-19T03:19:56;16.58;;;3.30;;
33738;SDS011;20063;51.730;11.110;2023-09-19T03:22:22;5.30;;;2.00;;
33738;SDS011;20063;51.730;11.110;2023-09-19T03:24:49;2.55;;;1.45;;
33738;SDS011;20063;51.730;11.110;2023-09-19T03:27:15;3.00;;;1.63;;
33738;SDS011;20063;51.730;11.110;2023-09-19T03:29:41;3.83;;;1.77;;
33738;SDS011;20063;51.730;11.110;2023-09-19T03:32:07;3.80;;;1.90;;
33738;SDS011;20063;51.730;11.110;2023-09-19T03:34:36;2.45;;;1.95;;
33738;SDS011;20063;51.730;11.110;2023-09-19T03:37:05;14.27;;;2.30;;
33738;SDS011;20063;51.730;11.110;2023-09-19T03:39:31;4.05;;;2.15;;
33738;SDS011;20063;51.730;11.110;2023-09-19T03:41:57;3.95;;;2.28;;
33738;SDS011;20063;51.730;11.110;2023-09-19T03:44:23;2.35;;;1.80;;
33738;SDS011;20063;51.730;11.110;2023-09-19T03:46:49;5.35;;;1.88;;
33738;SDS011;20063;51.730;11.110;2023-09-19T03:49:15;6.43;;;2.38;;
33738;SDS011;20063;51.730;11.110;2023-09-19T03:51:40;3.60;;;1.63;;
33738;SDS011;20063;51.730;11.110;2023-09-19T03:54:06;1.92;;;1.67;;
33738;SDS011;20063;51.730;11.110;2023-09-19T03:56:32;9.60;;;2.05;;
33738;SDS011;20063;51.730;11.110;2023-09-19T03:58:58;5.90;;;2.08;;
33738;SDS011;20063;51.730;11.110;2023-09-19T04:01:24;3.13;;;1.92;;
33738;SDS011;20063;51.730;11.110;2023-09-19T04:03:49;4.05;;;1.88;;
33738;SDS011;20063;51.730;11.110;2023-09-19T04:06:17;3.95;;;1.98;;
33738;SDS011;20063;51.730;11.110;2023-09-19T04:08:43;7.40;;;1.92;;
33738;SDS011;20063;51.730;11.110;2023-09-19T04:11:09;5.28;;;1.98;;
33738;SDS011;20063;51.730;11.110;2023-09-19T04:13:36;5.28;;;2.75;;
33738;SDS011;20063;51.730;11.110;2023-09-19T04:16:02;4.60;;;2.25;;
33738;SDS011;20063;51.730;11.110;2023-09-19T04:18:32;5.15;;;2.10;;
33738;SDS011;20063;51.730;11.110;2023-09-19T04:21:02;4.22;;;2.05;;
33738;SDS011;20063;51.730;11.110;2023-09-19T04:23:29;10.25;;;2.20;;
33738;SDS011;20063;51.730;11.110;2023-09-19T04:25:55;5.25;;;1.85;;
33738;SDS011;20063;51.730;11.110;2023-09-19T04:28:21;2.60;;;1.80;;
33738;SDS011;20063;51.730;11.110;2023-09-19T04:30:48;7.85;;;2.50;;
33738;SDS011;20063;51.730;11.110;2023-09-19T04:33:13;4.82;;;1.88;;
33738;SDS011;20063;51.730;11.110;2023-09-19T04:35:39;3.38;;;1.42;;
33738;SDS011;20063;51.730;11.110;2023-09-19T04:38:07;7.22;;;2.03;;
33738;SDS011;20063;51.730;11.110;2023-09-19T04:40:33;12.93;;;2.55;;
33738;SDS011;20063;51.730;11.110;2023-09-19T04:42:59;5.75;;;2.40;;
33738;SDS011;20063;51.730;11.110;2023-09-19T04:45:25;4.63;;;1.77;;
33738;SDS011;20063;51.730;11.110;2023-09-19T04:47:52;5.30;;;2.17;;
33738;SDS011;20063;51.730;11.110;2023-09-19T04:50:18;4.72;;;2.10;;
33738;SDS011;20063;51.730;11.110;2023-09-19T04:52:46;3.72;;;1.75;;
33738;SDS011;20063;51.730;11.110;2023-09-19T04:55:15;5.20;;;1.98;;
33738;SDS011;20063;51.730;11.110;2023-09-19T04:57:49;3.35;;;2.05;;
33738;SDS011;20063;51.730;11.110;2023-09-19T05:00:16;4.65;;;1.92;;
33738;SDS011;20063;51.730;11.110;2023-09-19T05:02:44;6.97;;;2.17;;
33738;SDS011;20063;51.730;11.110;2023-09-19T05:05:14;3.00;;;2.08;;
33738;SDS011;20063;51.730;11.110;2023-09-19T05:07:42;7.30;;;2.75;;
33738;SDS011;20063;51.730;11.110;2023-09-19T05:10:08;4.90;;;1.83;;
33738;SDS011;20063;51.730;11.110;2023-09-19T05:12:36;7.55;;;2.97;;
33738;SDS011;20063;51.730;11.110;2023-09-19T05:15:02;5.07;;;2.28;;
33738;SDS011;20063;51.730;11.110;2023-09-19T05:17:29;5.53;;;2.20;;
33738;SDS011;20063;51.730;11.110;2023-09-19T05:19:56;5.32;;;2.03;;
33738;SDS011;20063;51.730;11.110;2023-09-19T05:22:23;8.02;;;2.15;;
33738;SDS011;20063;51.730;11.110;2023-09-19T05:24:49;6.95;;;1.98;;
33738;SDS011;20063;51.730;11.110;2023-09-19T05:27:16;7.30;;;2.03;;
33738;SDS011;20063;51.730;11.110;2023-09-19T05:29:44;12.98;;;3.50;;
33738;SDS011;20063;51.730;11.110;2023-09-19T05:32:10;9.32;;;3.13;;
33738;SDS011;20063;51.730;11.110;2023-09-19T05:34:37;13.18;;;3.03;;
33738;SDS011;20063;51.730;11.110;2023-09-19T05:37:03;5.97;;;2.30;;
33738;SDS011;20063;51.730;11.110;2023-09-19T05:39:33;7.00;;;2.38;;
33738;SDS011;20063;51.730;11.110;2023-09-19T05:41:59;7.18;;;2.00;;
33738;SDS011;20063;51.730;11.110;2023-09-19T05:44:28;4.80;;;1.90;;
33738;SDS011;20063;51.730;11.110;2023-09-19T05:46:56;7.35;;;2.38;;
33738;SDS011;20063;51.730;11.110;2023-09-19T05:49:22;7.18;;;2.50;;
33738;SDS011;20063;51.730;11.110;2023-09-19T05:51:49;12.43;;;2.78;;
33738;SDS011;20063;51.730;11.110;2023-09-19T05:54:19;9.32;;;2.85;;
33738;SDS011;20063;51.730;11.110;2023-09-19T05:56:45;12.45;;;3.13;;
33738;SDS011;20063;51.730;11.110;2023-09-19T05:59:12;5.43;;;2.63;;
33738;SDS011;20063;51.730;11.110;2023-09-19T06:01:42;8.85;;;2.53;;
33738;SDS011;20063;51.730;11.110;2023-09-19T06:04:07;9.02;;;2.63;;
33738;SDS011;20063;51.730;11.110;2023-09-19T06:06:33;7.60;;;1.83;;
33738;SDS011;20063;51.730;11.110;2023-09-19T06:09:05;6.55;;;2.63;;
33738;SDS011;20063;51.730;11.110;2023-09-19T06:11:31;10.07;;;2.30;;
33738;SDS011;20063;51.730;11.110;2023-09-19T06:13:59;7.95;;;2.65;;
33738;SDS011;20063;51.730;11.110;2023-09-19T06:16:31;4.88;;;2.28;;
33738;SDS011;20063;51.730;11.110;2023-09-19T06:18:57;8.50;;;2.92;;
33738;SDS011;20063;51.730;11.110;2023-09-19T06:21:26;8.38;;;2.70;;
33738;SDS011;20063;51.730;11.110;2023-09-19T06:23:52;4.03;;;2.15;;
33738;SDS011;20063;51.730;11.110;2023-09-19T06:26:19;9.52;;;2.60;;
33738;SDS011;20063;51.730;11.110;2023-09-19T06:28:45;7.68;;;2.95;;
33738;SDS011;20063;51.730;11.110;2023-09-19T06:31:12;8.57;;;2.30;;
33738;SDS011;20063;51.730;11.110;2023-09-19T06:33:37;11.65;;;2.50;;
33738;SDS011;20063;51.730;11.110;2023-09-19T06:36:07;4.65;;;2.25;;
33738;SDS011;20063;51.730;11.110;2023-09-19T06:38:34;9.55;;;2.60;;
33738;SDS011;20063;51.730;11.110;2023-09-19T06:41:01;14.52;;;4.22;;
33738;SDS011;20063;51.730;11.110;2023-09-19T06:43:30;6.22;;;2.00;;
33738;SDS011;20063;51.730;11.110;2023-09-19T06:45:59;8.27;;;2.88;;
33738;SDS011;20063;51.730;11.110;2023-09-19T06:48:25;10.43;;;2.83;;
33738;SDS011;20063;51.730;11.110;2023-09-19T06:50:54;8.40;;;2.90;;
33738;SDS011;20063;51.730;11.110;2023-09-19T06:53:23;3.50;;;2.15;;
33738;SDS011;20063;51.730;11.110;2023-09-19T06:55:50;11.05;;;3.00;;
33738;SDS011;20063;51.730;11.110;2023-09-19T06:58:16;10.80;;;3.13;;
33738;SDS011;20063;51.730;11.110;2023-09-19T07:00:42;16.00;;;3.13;;
33738;SDS011;20063;51.730;11.110;2023-09-19T07:03:07;9.63;;;2.17;;
33738;SDS011;20063;51.730;11.110;2023-09-19T07:05:36;8.80;;;2.97;;
33738;SDS011;20063;51.730;11.110;2023-09-19T07:08:07;6.13;;;2.22;;
33738;SDS011;20063;51.730;11.110;2023-09-19T07:10:37;6.75;;;2.55;;
33738;SDS011;20063;51.730;11.110;2023-09-19T07:13:06;8.50;;;2.83;;
33738;SDS011;20063;51.730;11.110;2023-09-19T07:15:36;8.15;;;2.88;;
33738;SDS011;20063;51.730;11.110;2023-09-19T07:18:04;8.77;;;2.35;;
33738;SDS011;20063;51.730;11.110;2023-09-19T07:20:31;9.15;;;2.40;;
33738;SDS011;20063;51.730;11.110;2023-09-19T07:22:58;7.88;;;2.67;;
33738;SDS011;20063;51.730;11.110;2023-09-19T07:25:27;8.82;;;2.90;;
33738;SDS011;20063;51.730;11.110;2023-09-19T07:27:54;7.38;;;2.85;;
33738;SDS011;20063;51.730;11.110;2023-09-19T07:30:25;6.13;;;2.47;;
33738;SDS011;20063;51.730;11.110;2023-09-19T07:32:51;4.93;;;2.50;;
33738;SDS011;20063;51.730;11.110;2023-09-19T07:35:18;13.07;;;3.33;;
33738;SDS011;20063;51.730;11.110;2023-09-19T07:37:45;13.40;;;3.20;;
33738;SDS011;20063;51.730;11.110;2023-09-19T07:40:14;9.82;;;2.67;;
33738;SDS011;20063;51.730;11.110;2023-09-19T07:42:41;9.52;;;2.45;;
33738;SDS011;20063;51.730;11.110;2023-09-19T07:45:07;8.02;;;2.78;;
33738;SDS011;20063;51.730;11.110;2023-09-19T07:47:33;12.35;;;3.17;;
33738;SDS011;20063;51.730;11.110;2023-09-19T07:50:01;7.95;;;2.47;;
33738;SDS011;20063;51.730;11.110;2023-09-19T07:52:28;8.15;;;2.85;;
33738;SDS011;20063;51.730;11.110;2023-09-19T07:54:54;8.00;;;3.15;;
33738;SDS011;20063;51.730;11.110;2023-09-19T07:57:22;13.07;;;3.42;;
33738;SDS011;20063;51.730;11.110;2023-09-19T07:59:48;21.52;;;3.58;;
33738;SDS011;20063;51.730;11.110;2023-09-19T08:02:13;10.32;;;2.63;;
33738;SDS011;20063;51.730;11.110;2023-09-19T08:04:43;10.45;;;2.97;;
33738;SDS011;20063;51.730;11.110;2023-09-19T08:07:11;8.43;;;2.85;;
33738;SDS011;20063;51.730;11.110;2023-09-19T08:09:38;11.73;;;3.10;;
33738;SDS011;20063;51.730;11.110;2023-09-19T08:12:04;8.98;;;2.92;;
33738;SDS011;20063;51.730;11.110;2023-09-19T08:14:32;14.43;;;3.42;;
33738;SDS011;20063;51.730;11.110;2023-09-19T08:16:58;10.55;;;3.13;;
33738;SDS011;20063;51.730;11.110;2023-09-19T08:19:25;13.55;;;3.17;;
33738;SDS011;20063;51.730;11.110;2023-09-19T08:21:56;6.00;;;2.50;;
33738;SDS011;20063;51.730;11.110;2023-09-19T08:24:27;11.07;;;3.00;;
33738;SDS011;20063;51.730;11.110;2023-09-19T08:26:54;10.48;;;3.38;;
33738;SDS011;20063;51.730;11.110;2023-09-19T08:29:20;10.82;;;3.45;;
33738;SDS011;20063;51.730;11.110;2023-09-19T08:31:49;17.90;;;3.60;;
33738;SDS011;20063;51.730;11.110;2023-09-19T08:34:15;12.40;;;3.15;;
33738;SDS011;20063;51.730;11.110;2023-09-19T08:36:41;12.30;;;2.95;;
33738;SDS011;20063;51.730;11.110;2023-09-19T08:39:09;7.35;;;2.28;;
33738;SDS011;20063;51.730;11.110;2023-09-19T08:41:34;10.57;;;2.78;;
33738;SDS011;20063;51.730;11.110;2023-09-19T08:44:00;15.55;;;3.25;;
33738;SDS011;20063;51.730;11.110;2023-09-19T08:46:29;7.95;;;2.85;;
33738;SDS011;20063;51.730;11.110;2023-09-19T08:49:03;17.75;;;2.60;;
33738;SDS011;20063;51.730;11.110;2023-09-19T08:51:42;8.95;;;2.55;;
33738;SDS011;20063;51.730;11.110;2023-09-19T08:54:12;6.30;;;2.55;;
33738;SDS011;20063;51.730;11.110;2023-09-19T08:56:54;12.35;;;3.33;;
33738;SDS011;20063;51.730;11.110;2023-09-19T08:59:22;10.40;;;2.60;;
33738;SDS011;20063;51.730;11.110;2023-09-19T09:01:52;6.45;;;2.33;;
33738;SDS011;20063;51.730;11.110;2023-09-19T09:04:20;10.23;;;2.60;;
33738;SDS011;20063;51.730;11.110;2023-09-19T09:06:47;16.50;;;2.78;;
33738;SDS011;20063;51.730;11.110;2023-09-19T09:09:15;7.68;;;2.35;;
33738;SDS011;20063;51.730;11.110;2023-09-19T09:11:42;9.38;;;2.40;;
33738;SDS011;20063;51.730;11.110;2023-09-19T09:14:07;15.80;;;3.42;;
33738;SDS011;20063;51.730;11.110;2023-09-19T09:16:33;9.95;;;2.55;;
33738;SDS011;20063;51.730;11.110;2023-09-19T09:18:59;12.93;;;2.50;;
33738;SDS011;20063;51.730;11.110;2023-09-19T09:21:26;10.85;;;2.90;;
33738;SDS011;20063;51.730;11.110;2023-09-19T09:23:53;10.85;;;2.53;;
33738;SDS011;20063;51.730;11.110;2023-09-19T09:27:02;7.55;;;2.22;;
33738;SDS011;20063;51.730;11.110;2023-09-19T09:29:08;12.95;;;3.50;;
33738;SDS011;20063;51.730;11.110;2023-09-19T09:31:34;16.58;;;2.90;;
33738;SDS011;20063;51.730;11.110;2023-09-19T09:34:00;13.82;;;2.60;;
33738;SDS011;20063;51.730;11.110;2023-09-19T09:36:35;10.77;;;2.88;;
33738;SDS011;20063;51.730;11.110;2023-09-19T09:39:02;14.02;;;2.40;;
33738;SDS011;20063;51.730;11.110;2023-09-19T09:41:49;14.07;;;2.95;;
33738;SDS011;20063;51.730;11.110;2023-09-19T09:44:16;10.15;;;3.13;;
33738;SDS011;20063;51.730;11.110;2023-09-19T09:46:46;8.38;;;3.38;;
33738;SDS011;20063;51.730;11.110;2023-09-19T09:49:24;10.30;;;2.67;;
33738;SDS011;20063;51.730;11.110;2023-09-19T09:55:00;11.30;;;2.50;;
33738;SDS011;20063;51.730;11.110;2023-09-19T09:57:33;7.88;;;2.30;;
33738;SDS011;20063;51.730;11.110;2023-09-19T10:00:00;14.57;;;2.88;;
33738;SDS011;20063;51.730;11.110;2023-09-19T10:02:45;8.13;;;2.65;;
33738;SDS011;20063;51.730;11.110;2023-09-19T10:05:20;6.82;;;2.50;;
33738;SDS011;20063;51.730;11.110;2023-09-19T10:07:52;5.53;;;2.15;;
33738;SDS011;20063;51.730;11.110;2023-09-19T10:10:35;11.75;;;2.70;;
33738;SDS011;20063;51.730;11.110;2023-09-19T10:13:11;11.15;;;2.60;;
33738;SDS011;20063;51.730;11.110;2023-09-19T10:15:40;11.52;;;2.58;;
33738;SDS011;20063;51.730;11.110;2023-09-19T10:18:16;5.80;;;2.00;;
33738;SDS011;20063;51.730;11.110;2023-09-19T10:20:45;12.63;;;2.58;;
33738;SDS011;20063;51.730;11.110;2023-09-19T10:23:26;13.02;;;3.00;;
33738;SDS011;20063;51.730;11.110;2023-09-19T10:25:55;7.70;;;2.88;;
33738;SDS011;20063;51.730;11.110;2023-09-19T10:28:23;13.30;;;3.30;;
33738;SDS011;20063;51.730;11.110;2023-09-19T10:30:54;11.07;;;2.78;;
33738;SDS011;20063;51.730;11.110;2023-09-19T10:33:23;16.60;;;2.90;;
33738;SDS011;20063;51.730;11.110;2023-09-19T10:35:52;12.73;;;2.92;;
33738;SDS011;20063;51.730;11.110;2023-09-19T10:38:24;14.70;;;3.80;;
33738;SDS011;20063;51.730;11.110;2023-09-19T10:40:52;19.73;;;3.72;;
33738;SDS011;20063;51.730;11.110;2023-09-19T10:43:20;12.30;;;2.70;;
33738;SDS011;20063;51.730;11.110;2023-09-19T10:45:47;10.45;;;2.85;;
33738;SDS011;20063;51.730;11.110;2023-09-19T10:48:14;11.57;;;2.50;;
33738;SDS011;20063;51.730;11.110;2023-09-19T10:50:46;15.25;;;2.83;;
33738;SDS011;20063;51.730;11.110;2023-09-19T10:53:16;14.20;;;2.65;;
33738;SDS011;20063;51.730;11.110;2023-09-19T10:55:47;15.57;;;2.85;;
33738;SDS011;20063;51.730;11.110;2023-09-19T10:58:24;13.55;;;3.22;;
33738;SDS011;20063;51.730;11.110;2023-09-19T11:01:11;12.55;;;2.75;;
33738;SDS011;20063;51.730;11.110;2023-09-19T11:03:37;8.43;;;2.53;;
33738;SDS011;20063;51.730;11.110;2023-09-19T11:06:15;29.55;;;3.35;;
33738;SDS011;20063;51.730;11.110;2023-09-19T11:09:02;10.40;;;2.67;;
33738;SDS011;20063;51.730;11.110;2023-09-19T11:11:44;15.55;;;2.85;;
33738;SDS011;20063;51.730;11.110;2023-09-19T11:30:44;9.05;;;2.47;;
33738;SDS011;20063;51.730;11.110;2023-09-19T11:33:20;8.00;;;2.25;;
33738;SDS011;20063;51.730;11.110;2023-09-19T11:36:05;13.70;;;3.38;;
33738;SDS011;20063;51.730;11.110;2023-09-19T11:43:52;9.50;;;2.33;;
33738;SDS011;20063;51.730;11.110;2023-09-19T11:49:16;9.20;;;2.95;;
33738;SDS011;20063;51.730;11.110;2023-09-19T11:51:46;6.18;;;2.70;;
33738;SDS011;20063;51.730;11.110;2023-09-19T11:54:16;10.30;;;2.63;;
33738;SDS011;20063;51.730;11.110;2023-09-19T11:56:52;9.52;;;2.67;;
33738;SDS011;20063;51.730;11.110;2023-09-19T11:59:22;9.50;;;2.53;;
33738;SDS011;20063;51.730;11.110;2023-09-19T12:01:52;14.65;;;3.38;;
33738;SDS011;20063;51.730;11.110;2023-09-19T12:07:07;13.15;;;3.13;;
33738;SDS011;20063;51.730;11.110;2023-09-19T12:09:39;16.42;;;3.72;;
33738;SDS011;20063;51.730;11.110;2023-09-19T12:12:09;10.70;;;3.28;;
33738;SDS011;20063;51.730;11.110;2023-09-19T12:14:58;18.70;;;3.75;;
33738;SDS011;20063;51.730;11.110;2023-09-19T12:17:23;12.40;;;2.90;;
33738;SDS011;20063;51.730;11.110;2023-09-19T12:20:01;12.93;;;3.38;;
33738;SDS011;20063;51.730;11.110;2023-09-19T12:22:43;13.40;;;3.22;;
33738;SDS011;20063;51.730;11.110;2023-09-19T12:25:11;19.33;;;3.15;;
33738;SDS011;20063;51.730;11.110;2023-09-19T12:27:44;12.07;;;4.32;;
33738;SDS011;20063;51.730;11.110;2023-09-19T12:30:21;14.50;;;3.38;;
33738;SDS011;20063;51.730;11.110;2023-09-19T12:32:53;9.43;;;2.83;;
33738;SDS011;20063;51.730;11.110;2023-09-19T12:35:33;12.13;;;3.05;;
33738;SDS011;20063;51.730;11.110;2023-09-19T12:38:03;7.65;;;2.70;;
33738;SDS011;20063;51.730;11.110;2023-09-19T12:40:30;13.38;;;2.97;;
33738;SDS011;20063;51.730;11.110;2023-09-19T12:42:58;10.52;;;2.90;;
33738;SDS011;20063;51.730;11.110;2023-09-19T12:45:30;9.95;;;3.25;;
33738;SDS011;20063;51.730;11.110;2023-09-19T12:51:10;11.20;;;3.38;;
33738;SDS011;20063;51.730;11.110;2023-09-19T12:56:09;17.70;;;4.15;;
33738;SDS011;20063;51.730;11.110;2023-09-19T13:01:18;12.80;;;3.30;;
33738;SDS011;20063;51.730;11.110;2023-09-19T13:03:44;15.20;;;3.65;;
33738;SDS011;20063;51.730;11.110;2023-09-19T13:06:11;10.93;;;3.03;;
33738;SDS011;20063;51.730;11.110;2023-09-19T13:08:38;8.18;;;2.92;;
33738;SDS011;20063;51.730;11.110;2023-09-19T13:13:37;12.32;;;3.67;;
33738;SDS011;20063;51.730;11.110;2023-09-19T13:16:26;12.65;;;3.72;;
33738;SDS011;20063;51.730;11.110;2023-09-19T13:18:53;6.70;;;3.15;;
33738;SDS011;20063;51.730;11.110;2023-09-19T13:21:54;11.30;;;3.55;;
33738;SDS011;20063;51.730;11.110;2023-09-19T13:24:19;15.65;;;3.33;;
33738;SDS011;20063;51.730;11.110;2023-09-19T13:26:51;13.80;;;3.40;;
33738;SDS011;20063;51.730;11.110;2023-09-19T13:29:17;8.63;;;3.22;;
33738;SDS011;20063;51.730;11.110;2023-09-19T13:31:47;12.82;;;4.07;;
33738;SDS011;20063;51.730;11.110;2023-09-19T13:34:13;9.82;;;3.28;;
33738;SDS011;20063;51.730;11.110;2023-09-19T13:36:41;9.20;;;3.92;;
33738;SDS011;20063;51.730;11.110;2023-09-19T13:39:07;15.48;;;3.53;;
33738;SDS011;20063;51.730;11.110;2023-09-19T13:41:34;10.80;;;3.92;;
33738;SDS011;20063;51.730;11.110;2023-09-19T13:44:01;10.02;;;3.70;;
33738;SDS011;20063;51.730;11.110;2023-09-19T13:46:27;10.43;;;3.42;;
33738;SDS011;20063;51.730;11.110;2023-09-19T13:48:53;14.50;;;3.58;;
33738;SDS011;20063;51.730;11.110;2023-09-19T13:51:20;9.50;;;3.35;;
33738;SDS011;20063;51.730;11.110;2023-09-19T13:53:50;6.68;;;3.25;;
33738;SDS011;20063;51.730;11.110;2023-09-19T13:56:16;10.90;;;3.13;;
33738;SDS011;20063;51.730;11.110;2023-09-19T13:58:41;10.40;;;3.20;;
33738;SDS011;20063;51.730;11.110;2023-09-19T14:01:07;7.72;;;2.92;;
33738;SDS011;20063;51.730;11.110;2023-09-19T14:03:37;20.60;;;3.70;;
33738;SDS011;20063;51.730;11.110;2023-09-19T14:06:04;13.82;;;3.35;;
33738;SDS011;20063;51.730;11.110;2023-09-19T14:08:30;10.70;;;3.13;;
33738;SDS011;20063;51.730;11.110;2023-09-19T14:10:55;11.93;;;3.15;;
33738;SDS011;20063;51.730;11.110;2023-09-19T14:13:21;9.77;;;3.55;;
33738;SDS011;20063;51.730;11.110;2023-09-19T14:15:47;11.25;;;3.58;;
33738;SDS011;20063;51.730;11.110;2023-09-19T14:18:12;8.68;;;3.00;;
33738;SDS011;20063;51.730;11.110;2023-09-19T14:20:38;10.52;;;3.05;;
33738;SDS011;20063;51.730;11.110;2023-09-19T14:23:07;8.15;;;3.03;;
33738;SDS011;20063;51.730;11.110;2023-09-19T14:25:36;16.88;;;3.55;;
33738;SDS011;20063;51.730;11.110;2023-09-19T14:28:03;8.88;;;3.38;;
33738;SDS011;20063;51.730;11.110;2023-09-19T14:30:31;16.05;;;3.78;;
33738;SDS011;20063;51.730;11.110;2023-09-19T14:32:57;10.68;;;3.22;;
33738;SDS011;20063;51.730;11.110;2023-09-19T14:35:23;9.40;;;3.28;;
33738;SDS011;20063;51.730;11.110;2023-09-19T14:37:50;10.55;;;3.08;;
33738;SDS011;20063;51.730;11.110;2023-09-19T14:40:16;17.65;;;4.93;;
33738;SDS011;20063;51.730;11.110;2023-09-19T14:42:42;14.82;;;4.07;;
33738;SDS011;20063;51.730;11.110;2023-09-19T14:45:10;9.73;;;3.30;;
33738;SDS011;20063;51.730;11.110;2023-09-19T14:47:36;12.60;;;3.60;;
33738;SDS011;20063;51.730;11.110;2023-09-19T14:50:02;7.43;;;3.10;;
33738;SDS011;20063;51.730;11.110;2023-09-19T14:52:32;8.90;;;3.22;;
33738;SDS011;20063;51.730;11.110;2023-09-19T14:54:59;10.77;;;2.70;;
33738;SDS011;20063;51.730;11.110;2023-09-19T14:57:27;18.30;;;3.63;;
33738;SDS011;20063;51.730;11.110;2023-09-19T14:59:52;9.85;;;3.85;;
33738;SDS011;20063;51.730;11.110;2023-09-19T15:02:19;9.63;;;3.50;;
33738;SDS011;20063;51.730;11.110;2023-09-19T15:04:45;10.98;;;3.53;;
33738;SDS011;20063;51.730;11.110;2023-09-19T15:07:15;14.90;;;3.45;;
33738;SDS011;20063;51.730;11.110;2023-09-19T15:09:43;9.93;;;3.70;;
33738;SDS011;20063;51.730;11.110;2023-09-19T15:12:10;5.45;;;2.72;;
33738;SDS011;20063;51.730;11.110;2023-09-19T15:14:39;14.43;;;3.30;;
33738;SDS011;20063;51.730;11.110;2023-09-19T15:17:06;11.20;;;3.20;;
33738;SDS011;20063;51.730;11.110;2023-09-19T15:19:32;14.57;;;3.25;;
33738;SDS011;20063;51.730;11.110;2023-09-19T15:21:58;7.57;;;2.70;;
33738;SDS011;20063;51.730;11.110;2023-09-19T15:24:24;10.18;;;2.65;;
33738;SDS011;20063;51.730;11.110;2023-09-19T15:26:51;9.07;;;2.65;;
33738;SDS011;20063;51.730;11.110;2023-09-19T15:29:17;9.60;;;2.67;;
33738;SDS011;20063;51.730;11.110;2023-09-19T15:31:44;18.48;;;3.03;;
33738;SDS011;20063;51.730;11.110;2023-09-19T15:34:10;8.63;;;2.60;;
33738;SDS011;20063;51.730;11.110;2023-09-19T15:36:39;16.92;;;2.97;;